< < Back
Terminal Aerodrome Forecast


Current Version              Previous Versions:   1  2  3  4  5  6  7  8  9  

Terminal Aerodrome Forecast

606
FTUS44 KOHX 282300
TAFBNA
TAF
KBNA 282323Z 0100/0124 00000KT P6SM BKN080 BKN120 BKN250
     FM010600 16006KT P6SM OVC025
     FM010900 17006KT P6SM OVC015
     FM011200 18006KT 4SM -RA BR OVC009=

Latest METAR

851
SAUS70 KWBC 011500 RRX
MTRBNA
METAR KBNA 011453Z 17007KT 10SM OVC019 10/03 A3038 RMK AO2 SLP289
T01000033 55000


USA.gov is the U.S. government's official web portal to all federal, state and local government web resources and services.